sensor_id;sensor_type;location;lat;lon;timestamp;pressure;altitude;pressure_sealevel;temperature;humidity
58761;BME280;44529;47.464;19.014;2022-10-04T00:00:41;100569.25;;;11.85;75.38
58761;BME280;44529;47.464;19.014;2022-10-04T00:04:00;100574.88;;;11.98;74.82
58761;BME280;44529;47.464;19.014;2022-10-04T00:07:27;100570.41;;;11.93;74.88
58761;BME280;44529;47.464;19.014;2022-10-04T00:10:32;100564.22;;;12.01;74.36
58761;BME280;44529;47.464;19.014;2022-10-04T00:13:37;100562.78;;;12.04;74.11
58761;BME280;44529;47.464;19.014;2022-10-04T00:16:40;100557.53;;;12.07;74.27
58761;BME280;44529;47.464;19.014;2022-10-04T00:19:46;100557.72;;;12.11;74.33
58761;BME280;44529;47.464;19.014;2022-10-04T00:29:33;100571.28;;;12.11;75.01
58761;BME280;44529;47.464;19.014;2022-10-04T00:35:46;100567.09;;;12.05;74.19
58761;BME280;44529;47.464;19.014;2022-10-04T00:45:31;100555.16;;;12.14;76.00
58761;BME280;44529;47.464;19.014;2022-10-04T00:48:37;100561.06;;;12.16;75.08
58761;BME280;44529;47.464;19.014;2022-10-04T00:54:54;100556.47;;;12.26;75.42
58761;BME280;44529;47.464;19.014;2022-10-04T00:58:01;100552.00;;;12.30;75.29
58761;BME280;44529;47.464;19.014;2022-10-04T01:01:04;100544.72;;;12.30;75.37
58761;BME280;44529;47.464;19.014;2022-10-04T01:04:20;100537.47;;;12.17;75.46
58761;BME280;44529;47.464;19.014;2022-10-04T01:07:30;100540.69;;;12.19;76.75
58761;BME280;44529;47.464;19.014;2022-10-04T01:10:45;100537.78;;;12.15;76.28
58761;BME280;44529;47.464;19.014;2022-10-04T01:13:55;100536.19;;;12.14;76.24
58761;BME280;44529;47.464;19.014;2022-10-04T01:16:57;100537.09;;;12.01;76.58
58761;BME280;44529;47.464;19.014;2022-10-04T01:20:00;100536.13;;;11.97;77.40
58761;BME280;44529;47.464;19.014;2022-10-04T01:23:03;100531.03;;;11.96;77.47
58761;BME280;44529;47.464;19.014;2022-10-04T01:26:53;100526.53;;;11.91;77.51
58761;BME280;44529;47.464;19.014;2022-10-04T01:29:35;100527.19;;;11.97;76.36
58761;BME280;44529;47.464;19.014;2022-10-04T01:32:38;100530.91;;;12.09;76.97
58761;BME280;44529;47.464;19.014;2022-10-04T01:35:40;100522.16;;;12.12;76.66
58761;BME280;44529;47.464;19.014;2022-10-04T01:38:43;100523.62;;;12.18;76.51
58761;BME280;44529;47.464;19.014;2022-10-04T01:41:47;100533.66;;;12.18;76.60
58761;BME280;44529;47.464;19.014;2022-10-04T01:45:16;100518.66;;;12.12;76.60
58761;BME280;44529;47.464;19.014;2022-10-04T01:48:22;100515.31;;;12.15;76.74
58761;BME280;44529;47.464;19.014;2022-10-04T01:51:33;100518.06;;;12.24;75.90
58761;BME280;44529;47.464;19.014;2022-10-04T01:54:41;100519.94;;;12.14;77.11
58761;BME280;44529;47.464;19.014;2022-10-04T01:58:00;100517.69;;;12.16;77.38
58761;BME280;44529;47.464;19.014;2022-10-04T02:01:38;100521.06;;;12.22;76.64
58761;BME280;44529;47.464;19.014;2022-10-04T02:04:39;100516.62;;;12.26;75.94
58761;BME280;44529;47.464;19.014;2022-10-04T02:07:43;100528.25;;;12.27;75.82
58761;BME280;44529;47.464;19.014;2022-10-04T02:10:48;100524.28;;;12.24;76.16
58761;BME280;44529;47.464;19.014;2022-10-04T02:13:52;100527.78;;;12.25;76.43
58761;BME280;44529;47.464;19.014;2022-10-04T02:16:56;100533.69;;;12.27;76.49
58761;BME280;44529;47.464;19.014;2022-10-04T02:20:00;100538.31;;;12.26;76.32
58761;BME280;44529;47.464;19.014;2022-10-04T02:23:04;100534.31;;;12.24;76.63
58761;BME280;44529;47.464;19.014;2022-10-04T02:26:08;100542.28;;;12.29;76.87
58761;BME280;44529;47.464;19.014;2022-10-04T02:29:11;100540.06;;;12.31;76.75
58761;BME280;44529;47.464;19.014;2022-10-04T02:32:13;100528.72;;;12.29;76.44
58761;BME280;44529;47.464;19.014;2022-10-04T02:35:45;100540.03;;;12.13;77.30
58761;BME280;44529;47.464;19.014;2022-10-04T02:39:13;100548.75;;;12.10;77.37
58761;BME280;44529;47.464;19.014;2022-10-04T02:45:47;100550.97;;;12.00;78.93
58761;BME280;44529;47.464;19.014;2022-10-04T02:48:59;100544.16;;;12.11;77.56
58761;BME280;44529;47.464;19.014;2022-10-04T02:52:08;100539.50;;;12.03;78.97
58761;BME280;44529;47.464;19.014;2022-10-04T02:55:19;100536.31;;;12.01;78.98
58761;BME280;44529;47.464;19.014;2022-10-04T02:58:23;100540.00;;;12.05;78.44
58761;BME280;44529;47.464;19.014;2022-10-04T03:01:38;100551.47;;;12.02;78.61
58761;BME280;44529;47.464;19.014;2022-10-04T03:04:42;100541.53;;;11.97;79.02
58761;BME280;44529;47.464;19.014;2022-10-04T03:07:44;100532.78;;;11.91;79.93
58761;BME280;44529;47.464;19.014;2022-10-04T03:10:47;100545.03;;;11.89;78.97
58761;BME280;44529;47.464;19.014;2022-10-04T03:13:53;100553.81;;;11.95;79.12
58761;BME280;44529;47.464;19.014;2022-10-04T03:17:00;100540.09;;;11.91;78.93
58761;BME280;44529;47.464;19.014;2022-10-04T03:20:05;100542.78;;;11.82;79.58
58761;BME280;44529;47.464;19.014;2022-10-04T03:23:10;100537.81;;;11.84;79.69
58761;BME280;44529;47.464;19.014;2022-10-04T03:29:31;100536.03;;;11.80;80.18
58761;BME280;44529;47.464;19.014;2022-10-04T03:32:35;100542.37;;;11.75;80.50
58761;BME280;44529;47.464;19.014;2022-10-04T03:35:38;100549.97;;;11.64;80.75
58761;BME280;44529;47.464;19.014;2022-10-04T03:38:42;100552.84;;;11.59;80.87
58761;BME280;44529;47.464;19.014;2022-10-04T03:41:45;100549.63;;;11.57;81.13
58761;BME280;44529;47.464;19.014;2022-10-04T03:44:51;100560.88;;;11.73;80.86
58761;BME280;44529;47.464;19.014;2022-10-04T03:47:59;100555.91;;;11.66;80.89
58761;BME280;44529;47.464;19.014;2022-10-04T03:51:09;100566.88;;;11.61;81.25
58761;BME280;44529;47.464;19.014;2022-10-04T03:54:17;100563.69;;;11.59;81.28
58761;BME280;44529;47.464;19.014;2022-10-04T03:57:20;100543.41;;;11.57;81.68
58761;BME280;44529;47.464;19.014;2022-10-04T04:00:23;100554.09;;;11.53;82.01
58761;BME280;44529;47.464;19.014;2022-10-04T04:03:27;100550.69;;;11.48;82.31
58761;BME280;44529;47.464;19.014;2022-10-04T04:06:40;100548.28;;;11.46;82.55
58761;BME280;44529;47.464;19.014;2022-10-04T04:10:03;100547.91;;;11.39;82.80
58761;BME280;44529;47.464;19.014;2022-10-04T04:16:38;100547.91;;;11.39;83.72
58761;BME280;44529;47.464;19.014;2022-10-04T04:19:41;100555.13;;;11.44;82.64
58761;BME280;44529;47.464;19.014;2022-10-04T04:22:59;100548.25;;;11.37;83.41
58761;BME280;44529;47.464;19.014;2022-10-04T04:26:36;100544.94;;;11.41;83.39
58761;BME280;44529;47.464;19.014;2022-10-04T04:29:48;100549.34;;;11.36;83.29
58761;BME280;44529;47.464;19.014;2022-10-04T04:32:54;100552.84;;;11.37;83.06
58761;BME280;44529;47.464;19.014;2022-10-04T04:36:09;100565.41;;;11.33;83.38
58761;BME280;44529;47.464;19.014;2022-10-04T04:39:22;100558.50;;;11.27;83.66
58761;BME280;44529;47.464;19.014;2022-10-04T04:42:42;100564.59;;;11.32;83.55
58761;BME280;44529;47.464;19.014;2022-10-04T04:45:49;100577.22;;;11.37;83.95
58761;BME280;44529;47.464;19.014;2022-10-04T04:49:14;100574.88;;;11.44;83.36
58761;BME280;44529;47.464;19.014;2022-10-04T04:52:20;100564.72;;;11.50;83.19
58761;BME280;44529;47.464;19.014;2022-10-04T04:55:27;100568.53;;;11.49;83.37
58761;BME280;44529;47.464;19.014;2022-10-04T04:58:51;100572.09;;;11.58;83.28
58761;BME280;44529;47.464;19.014;2022-10-04T05:01:55;100580.88;;;11.63;82.28
58761;BME280;44529;47.464;19.014;2022-10-04T05:05:15;100590.31;;;11.66;82.33
58761;BME280;44529;47.464;19.014;2022-10-04T05:08:19;100589.50;;;11.65;82.37
58761;BME280;44529;47.464;19.014;2022-10-04T05:11:25;100602.31;;;11.74;82.17
58761;BME280;44529;47.464;19.014;2022-10-04T05:14:31;100600.88;;;11.76;82.18
58761;BME280;44529;47.464;19.014;2022-10-04T05:17:33;100594.84;;;11.79;81.98
58761;BME280;44529;47.464;19.014;2022-10-04T05:20:36;100604.06;;;11.78;82.04
58761;BME280;44529;47.464;19.014;2022-10-04T05:23:39;100606.06;;;11.64;83.05
58761;BME280;44529;47.464;19.014;2022-10-04T05:26:41;100613.87;;;11.65;82.96
58761;BME280;44529;47.464;19.014;2022-10-04T05:29:56;100624.09;;;11.69;82.76
58761;BME280;44529;47.464;19.014;2022-10-04T05:33:10;100616.56;;;11.65;82.61
58761;BME280;44529;47.464;19.014;2022-10-04T05:42:40;100633.59;;;11.57;84.25
58761;BME280;44529;47.464;19.014;2022-10-04T05:45:48;100638.62;;;11.50;84.04
58761;BME280;44529;47.464;19.014;2022-10-04T05:49:12;100635.12;;;11.50;84.49
58761;BME280;44529;47.464;19.014;2022-10-04T05:52:34;100631.00;;;11.52;84.98
58761;BME280;44529;47.464;19.014;2022-10-04T05:55:53;100636.25;;;11.49;85.54
58761;BME280;44529;47.464;19.014;2022-10-04T06:03:23;100646.75;;;11.50;86.27
58761;BME280;44529;47.464;19.014;2022-10-04T06:06:42;100654.13;;;11.58;86.34
58761;BME280;44529;47.464;19.014;2022-10-04T06:09:58;100645.28;;;11.66;85.72
58761;BME280;44529;47.464;19.014;2022-10-04T06:16:32;100656.81;;;11.72;85.79
58761;BME280;44529;47.464;19.014;2022-10-04T06:23:20;100665.91;;;11.76;85.69
58761;BME280;44529;47.464;19.014;2022-10-04T06:26:28;100662.06;;;11.77;86.05
58761;BME280;44529;47.464;19.014;2022-10-04T06:29:35;100673.50;;;11.88;85.81
58761;BME280;44529;47.464;19.014;2022-10-04T06:36:26;100675.13;;;11.98;85.79
58761;BME280;44529;47.464;19.014;2022-10-04T06:49:41;100676.50;;;12.09;85.54
58761;BME280;44529;47.464;19.014;2022-10-04T06:53:00;100675.91;;;12.20;85.71
58761;BME280;44529;47.464;19.014;2022-10-04T06:59:50;100687.75;;;12.25;85.45
58761;BME280;44529;47.464;19.014;2022-10-04T07:03:08;100691.13;;;12.30;85.78
58761;BME280;44529;47.464;19.014;2022-10-04T07:06:11;100684.28;;;12.33;86.03
58761;BME280;44529;47.464;19.014;2022-10-04T07:09:20;100692.28;;;12.38;85.61
58761;BME280;44529;47.464;19.014;2022-10-04T07:12:24;100691.78;;;12.36;85.94
58761;BME280;44529;47.464;19.014;2022-10-04T07:15:32;100687.34;;;12.48;84.87
58761;BME280;44529;47.464;19.014;2022-10-04T07:28:27;100691.47;;;12.86;83.89
58761;BME280;44529;47.464;19.014;2022-10-04T07:32:00;100691.19;;;12.96;83.45
58761;BME280;44529;47.464;19.014;2022-10-04T07:38:22;100700.00;;;13.10;81.75
58761;BME280;44529;47.464;19.014;2022-10-04T07:41:44;100693.44;;;13.11;81.58
58761;BME280;44529;47.464;19.014;2022-10-04T07:45:18;100711.06;;;13.22;81.19
58761;BME280;44529;47.464;19.014;2022-10-04T07:48:22;100704.38;;;13.28;81.04
58761;BME280;44529;47.464;19.014;2022-10-04T07:58:40;100715.72;;;13.65;78.53
58761;BME280;44529;47.464;19.014;2022-10-04T08:05:26;100706.56;;;13.96;75.98
58761;BME280;44529;47.464;19.014;2022-10-04T08:08:53;100711.59;;;14.32;73.45
58761;BME280;44529;47.464;19.014;2022-10-04T08:15:42;100719.72;;;15.17;69.36
58761;BME280;44529;47.464;19.014;2022-10-04T08:19:18;100706.41;;;15.66;68.18
58761;BME280;44529;47.464;19.014;2022-10-04T08:22:36;100716.19;;;15.58;67.33
58761;BME280;44529;47.464;19.014;2022-10-04T08:33:11;100727.06;;;14.96;64.94
58761;BME280;44529;47.464;19.014;2022-10-04T08:36:39;100730.59;;;14.87;66.23
58761;BME280;44529;47.464;19.014;2022-10-04T08:40:00;100730.59;;;14.87;67.93
58761;BME280;44529;47.464;19.014;2022-10-04T08:53:43;100734.19;;;14.79;68.95
58761;BME280;44529;47.464;19.014;2022-10-04T08:57:19;100738.03;;;14.78;68.86
58761;BME280;44529;47.464;19.014;2022-10-04T09:04:02;100771.03;;;14.77;68.20
58761;BME280;44529;47.464;19.014;2022-10-04T09:07:30;100749.06;;;14.82;68.47
58761;BME280;44529;47.464;19.014;2022-10-04T09:14:03;100755.72;;;14.93;65.64
58761;BME280;44529;47.464;19.014;2022-10-04T09:17:25;100753.28;;;15.00;65.46
58761;BME280;44529;47.464;19.014;2022-10-04T09:20:56;100741.06;;;15.15;65.00
58761;BME280;44529;47.464;19.014;2022-10-04T09:27:49;100734.56;;;15.49;61.72
58761;BME280;44529;47.464;19.014;2022-10-04T09:38:18;100738.75;;;15.47;62.37
58761;BME280;44529;47.464;19.014;2022-10-04T09:58:43;100765.34;;;15.50;65.05
58761;BME280;44529;47.464;19.014;2022-10-04T10:05:43;100776.25;;;15.50;61.97
58761;BME280;44529;47.464;19.014;2022-10-04T10:12:34;100781.78;;;15.32;62.95
58761;BME280;44529;47.464;19.014;2022-10-04T10:26:40;100783.56;;;15.07;63.60
58761;BME280;44529;47.464;19.014;2022-10-04T10:33:05;100792.31;;;15.13;64.36
58761;BME280;44529;47.464;19.014;2022-10-04T10:36:56;100789.94;;;15.11;64.51
58761;BME280;44529;47.464;19.014;2022-10-04T10:40:44;100786.34;;;15.20;63.26
58761;BME280;44529;47.464;19.014;2022-10-04T10:51:12;100788.78;;;15.72;62.30
58761;BME280;44529;47.464;19.014;2022-10-04T11:07:53;100783.69;;;16.24;58.73
58761;BME280;44529;47.464;19.014;2022-10-04T11:25:26;100775.00;;;16.55;58.49
58761;BME280;44529;47.464;19.014;2022-10-04T11:29:09;100780.63;;;16.83;56.94
58761;BME280;44529;47.464;19.014;2022-10-04T11:42:31;100783.59;;;16.90;57.13
58761;BME280;44529;47.464;19.014;2022-10-04T11:46:02;100784.50;;;16.82;56.99
58761;BME280;44529;47.464;19.014;2022-10-04T11:56:09;100780.34;;;16.64;59.75
58761;BME280;44529;47.464;19.014;2022-10-04T11:59:22;100788.56;;;16.64;60.20
58761;BME280;44529;47.464;19.014;2022-10-04T12:09:36;100781.75;;;16.70;60.35
58761;BME280;44529;47.464;19.014;2022-10-04T12:12:46;100792.59;;;16.45;61.18
58761;BME280;44529;47.464;19.014;2022-10-04T12:16:16;100776.69;;;16.14;62.49
58761;BME280;44529;47.464;19.014;2022-10-04T12:19:34;100785.50;;;15.99;63.72
58761;BME280;44529;47.464;19.014;2022-10-04T12:26:23;100783.03;;;16.39;62.73
58761;BME280;44529;47.464;19.014;2022-10-04T12:33:24;100784.62;;;16.40;60.26
58761;BME280;44529;47.464;19.014;2022-10-04T12:36:43;100786.09;;;16.38;58.81
58761;BME280;44529;47.464;19.014;2022-10-04T12:43:00;100789.41;;;16.43;59.89
58761;BME280;44529;47.464;19.014;2022-10-04T12:49:47;100791.03;;;16.57;60.75
58761;BME280;44529;47.464;19.014;2022-10-04T13:00:19;100793.09;;;16.60;56.97
58761;BME280;44529;47.464;19.014;2022-10-04T13:03:54;100787.91;;;16.79;58.31
58761;BME280;44529;47.464;19.014;2022-10-04T13:07:29;100787.25;;;16.94;56.57
58761;BME280;44529;47.464;19.014;2022-10-04T13:14:16;100787.81;;;17.12;53.54
58761;BME280;44529;47.464;19.014;2022-10-04T13:38:31;100783.94;;;16.89;54.31
58761;BME280;44529;47.464;19.014;2022-10-04T13:48:52;100788.28;;;16.90;55.11
58761;BME280;44529;47.464;19.014;2022-10-04T13:56:02;100793.41;;;17.03;54.62
58761;BME280;44529;47.464;19.014;2022-10-04T14:16:55;100807.97;;;17.20;53.33
58761;BME280;44529;47.464;19.014;2022-10-04T14:33:13;100810.41;;;16.64;54.42
58761;BME280;44529;47.464;19.014;2022-10-04T14:36:46;100808.47;;;16.64;54.96
58761;BME280;44529;47.464;19.014;2022-10-04T14:47:04;100830.22;;;16.73;55.09
58761;BME280;44529;47.464;19.014;2022-10-04T14:56:55;100823.84;;;16.69;56.51
58761;BME280;44529;47.464;19.014;2022-10-04T15:00:18;100835.19;;;16.59;57.53
58761;BME280;44529;47.464;19.014;2022-10-04T15:06:47;100837.00;;;16.67;56.68
58761;BME280;44529;47.464;19.014;2022-10-04T15:13:22;100845.25;;;16.46;59.00
58761;BME280;44529;47.464;19.014;2022-10-04T15:16:44;100843.31;;;16.46;58.12
58761;BME280;44529;47.464;19.014;2022-10-04T15:29:26;100845.66;;;16.23;59.25
58761;BME280;44529;47.464;19.014;2022-10-04T15:32:52;100855.03;;;16.14;60.39
58761;BME280;44529;47.464;19.014;2022-10-04T15:36:08;100852.28;;;16.14;59.72
58761;BME280;44529;47.464;19.014;2022-10-04T15:39:24;100863.09;;;16.10;60.14
58761;BME280;44529;47.464;19.014;2022-10-04T15:42:38;100860.91;;;16.04;60.22
58761;BME280;44529;47.464;19.014;2022-10-04T15:45:53;100857.09;;;15.96;60.64
58761;BME280;44529;47.464;19.014;2022-10-04T15:49:33;100860.81;;;15.91;61.33
58761;BME280;44529;47.464;19.014;2022-10-04T15:56:40;100870.25;;;15.73;61.53
58761;BME280;44529;47.464;19.014;2022-10-04T15:59:50;100872.72;;;15.66;62.05
58761;BME280;44529;47.464;19.014;2022-10-04T16:06:24;100879.94;;;15.62;61.58
58761;BME280;44529;47.464;19.014;2022-10-04T16:09:49;100887.00;;;15.54;61.88
58761;BME280;44529;47.464;19.014;2022-10-04T16:16:20;100891.22;;;15.13;64.13
58761;BME280;44529;47.464;19.014;2022-10-04T16:20:02;100897.13;;;15.07;65.17
58761;BME280;44529;47.464;19.014;2022-10-04T16:29:58;100918.03;;;14.85;65.72
58761;BME280;44529;47.464;19.014;2022-10-04T16:33:39;100916.94;;;14.69;67.58
58761;BME280;44529;47.464;19.014;2022-10-04T16:40:45;100906.69;;;14.57;67.65
58761;BME280;44529;47.464;19.014;2022-10-04T16:43:59;100911.19;;;14.62;67.24
58761;BME280;44529;47.464;19.014;2022-10-04T16:54:33;100927.00;;;14.25;69.90
58761;BME280;44529;47.464;19.014;2022-10-04T16:57:41;100931.66;;;14.25;69.75
58761;BME280;44529;47.464;19.014;2022-10-04T17:00:45;100939.50;;;14.18;69.97
58761;BME280;44529;47.464;19.014;2022-10-04T17:07:56;100944.28;;;14.12;70.09
58761;BME280;44529;47.464;19.014;2022-10-04T17:11:13;100938.66;;;14.08;71.23
58761;BME280;44529;47.464;19.014;2022-10-04T17:21:41;100955.28;;;13.98;71.61
58761;BME280;44529;47.464;19.014;2022-10-04T17:25:03;100959.75;;;13.94;71.65
58761;BME280;44529;47.464;19.014;2022-10-04T17:32:04;100962.75;;;13.84;72.40
58761;BME280;44529;47.464;19.014;2022-10-04T17:45:41;100973.13;;;13.73;71.86
58761;BME280;44529;47.464;19.014;2022-10-04T17:49:03;100972.81;;;13.75;71.75
58761;BME280;44529;47.464;19.014;2022-10-04T17:52:40;100976.47;;;13.70;72.85
58761;BME280;44529;47.464;19.014;2022-10-04T17:56:05;100979.31;;;13.65;72.97
58761;BME280;44529;47.464;19.014;2022-10-04T17:59:26;100984.47;;;13.67;72.66
58761;BME280;44529;47.464;19.014;2022-10-04T18:03:00;100989.59;;;13.77;72.09
58761;BME280;44529;47.464;19.014;2022-10-04T18:06:25;100989.09;;;13.66;72.70
58761;BME280;44529;47.464;19.014;2022-10-04T18:09:56;100993.22;;;13.64;72.09
58761;BME280;44529;47.464;19.014;2022-10-04T18:13:15;100984.91;;;13.60;71.04
58761;BME280;44529;47.464;19.014;2022-10-04T18:23:12;100989.56;;;13.68;70.58
58761;BME280;44529;47.464;19.014;2022-10-04T18:26:16;100995.63;;;13.65;70.48
58761;BME280;44529;47.464;19.014;2022-10-04T18:29:34;101000.25;;;13.65;69.05
58761;BME280;44529;47.464;19.014;2022-10-04T18:32:37;101003.28;;;13.63;68.78
58761;BME280;44529;47.464;19.014;2022-10-04T18:35:49;100996.75;;;13.64;68.60
58761;BME280;44529;47.464;19.014;2022-10-04T18:39:02;101001.81;;;13.57;69.41
58761;BME280;44529;47.464;19.014;2022-10-04T18:42:27;101003.75;;;13.57;68.23
58761;BME280;44529;47.464;19.014;2022-10-04T18:45:31;101012.22;;;13.55;67.70
58761;BME280;44529;47.464;19.014;2022-10-04T18:48:58;101010.16;;;13.61;67.13
58761;BME280;44529;47.464;19.014;2022-10-04T19:05:29;101028.84;;;13.53;67.66
58761;BME280;44529;47.464;19.014;2022-10-04T19:12:16;101040.97;;;13.56;67.30
58761;BME280;44529;47.464;19.014;2022-10-04T19:18:54;101049.31;;;13.60;67.37
58761;BME280;44529;47.464;19.014;2022-10-04T19:31:30;101051.38;;;13.54;68.18
58761;BME280;44529;47.464;19.014;2022-10-04T19:35:06;101057.59;;;13.54;67.71
58761;BME280;44529;47.464;19.014;2022-10-04T19:48:25;101071.06;;;13.37;68.56
58761;BME280;44529;47.464;19.014;2022-10-04T19:51:33;101070.75;;;13.39;69.34
58761;BME280;44529;47.464;19.014;2022-10-04T19:54:38;101078.25;;;13.19;70.19
58761;BME280;44529;47.464;19.014;2022-10-04T19:57:41;101081.25;;;13.09;71.79
58761;BME280;44529;47.464;19.014;2022-10-04T20:00:43;101087.94;;;12.89;73.46
58761;BME280;44529;47.464;19.014;2022-10-04T20:03:46;101084.66;;;12.79;74.16
58761;BME280;44529;47.464;19.014;2022-10-04T20:07:20;101092.59;;;12.61;74.95
58761;BME280;44529;47.464;19.014;2022-10-04T20:10:31;101092.06;;;12.37;76.15
58761;BME280;44529;47.464;19.014;2022-10-04T20:13:34;101092.97;;;12.05;76.91
58761;BME280;44529;47.464;19.014;2022-10-04T20:19:48;101102.84;;;11.82;78.43
58761;BME280;44529;47.464;19.014;2022-10-04T20:28:55;101103.09;;;11.34;81.13
58761;BME280;44529;47.464;19.014;2022-10-04T20:31:57;101106.31;;;11.36;81.60
58761;BME280;44529;47.464;19.014;2022-10-04T20:35:01;101114.31;;;11.27;81.65
58761;BME280;44529;47.464;19.014;2022-10-04T20:44:46;101124.63;;;11.06;82.05
58761;BME280;44529;47.464;19.014;2022-10-04T20:47:54;101128.59;;;10.95;83.15
58761;BME280;44529;47.464;19.014;2022-10-04T20:51:07;101127.84;;;10.90;83.37
58761;BME280;44529;47.464;19.014;2022-10-04T20:54:17;101135.37;;;10.93;83.38
58761;BME280;44529;47.464;19.014;2022-10-04T20:57:19;101140.94;;;10.82;84.92
58761;BME280;44529;47.464;19.014;2022-10-04T21:00:26;101139.47;;;10.90;83.56
58761;BME280;44529;47.464;19.014;2022-10-04T21:03:28;101139.19;;;10.92;83.56
58761;BME280;44529;47.464;19.014;2022-10-04T21:06:52;101141.44;;;10.84;83.77
58761;BME280;44529;47.464;19.014;2022-10-04T21:10:15;101141.44;;;10.84;84.05
58761;BME280;44529;47.464;19.014;2022-10-04T21:16:47;101146.00;;;10.65;85.02
58761;BME280;44529;47.464;19.014;2022-10-04T21:19:50;101143.16;;;10.56;86.12
58761;BME280;44529;47.464;19.014;2022-10-04T21:23:15;101139.91;;;10.54;86.51
58761;BME280;44529;47.464;19.014;2022-10-04T21:26:22;101146.03;;;10.41;86.96
58761;BME280;44529;47.464;19.014;2022-10-04T21:29:25;101153.84;;;10.43;86.84
58761;BME280;44529;47.464;19.014;2022-10-04T21:32:32;101162.37;;;10.31;87.50
58761;BME280;44529;47.464;19.014;2022-10-04T21:35:35;101161.03;;;10.28;87.27
58761;BME280;44529;47.464;19.014;2022-10-04T21:38:37;101158.63;;;10.27;87.77
58761;BME280;44529;47.464;19.014;2022-10-04T21:41:39;101158.63;;;10.22;88.30
58761;BME280;44529;47.464;19.014;2022-10-04T21:44:41;101167.34;;;10.19;88.69
58761;BME280;44529;47.464;19.014;2022-10-04T21:47:43;101170.25;;;10.22;89.23
58761;BME280;44529;47.464;19.014;2022-10-04T21:50:46;101170.28;;;10.17;91.26
58761;BME280;44529;47.464;19.014;2022-10-04T21:53:49;101170.25;;;10.22;89.33
58761;BME280;44529;47.464;19.014;2022-10-04T21:56:52;101167.81;;;10.26;89.18
58761;BME280;44529;47.464;19.014;2022-10-04T21:59:54;101175.66;;;10.22;89.11
58761;BME280;44529;47.464;19.014;2022-10-04T22:02:57;101184.88;;;10.21;88.94
58761;BME280;44529;47.464;19.014;2022-10-04T22:05:59;101180.25;;;10.22;89.02
58761;BME280;44529;47.464;19.014;2022-10-04T22:09:02;101184.09;;;10.16;89.62
58761;BME280;44529;47.464;19.014;2022-10-04T22:12:04;101179.78;;;10.15;88.90
58761;BME280;44529;47.464;19.014;2022-10-04T22:15:07;101179.56;;;10.11;89.21
58761;BME280;44529;47.464;19.014;2022-10-04T22:18:10;101173.91;;;10.08;89.28
58761;BME280;44529;47.464;19.014;2022-10-04T22:21:12;101187.47;;;10.02;89.60
58761;BME280;44529;47.464;19.014;2022-10-04T22:24:20;101196.16;;;9.99;89.52
58761;BME280;44529;47.464;19.014;2022-10-04T22:27:23;101182.50;;;9.86;90.26
58761;BME280;44529;47.464;19.014;2022-10-04T22:30:28;101186.28;;;9.85;90.35
58761;BME280;44529;47.464;19.014;2022-10-04T22:33:33;101191.78;;;9.74;90.76
58761;BME280;44529;47.464;19.014;2022-10-04T22:36:37;101190.41;;;9.77;90.85
58761;BME280;44529;47.464;19.014;2022-10-04T22:39:40;101191.25;;;9.72;91.30
58761;BME280;44529;47.464;19.014;2022-10-04T22:42:42;101188.78;;;9.76;90.94
58761;BME280;44529;47.464;19.014;2022-10-04T22:45:45;101193.97;;;9.72;91.29
58761;BME280;44529;47.464;19.014;2022-10-04T22:48:48;101199.66;;;9.66;91.96
58761;BME280;44529;47.464;19.014;2022-10-04T22:51:52;101198.81;;;9.70;91.71
58761;BME280;44529;47.464;19.014;2022-10-04T22:54:56;101198.59;;;9.67;92.39
58761;BME280;44529;47.464;19.014;2022-10-04T22:58:02;101199.16;;;9.59;92.57
58761;BME280;44529;47.464;19.014;2022-10-04T23:01:14;101204.56;;;9.59;92.15
58761;BME280;44529;47.464;19.014;2022-10-04T23:04:22;101196.72;;;9.62;92.05
58761;BME280;44529;47.464;19.014;2022-10-04T23:07:25;101204.03;;;9.62;91.61
58761;BME280;44529;47.464;19.014;2022-10-04T23:10:27;101208.62;;;9.61;92.00
58761;BME280;44529;47.464;19.014;2022-10-04T23:13:30;101202.16;;;9.57;91.81
58761;BME280;44529;47.464;19.014;2022-10-04T23:16:32;101206.78;;;9.52;91.79
58761;BME280;44529;47.464;19.014;2022-10-04T23:19:34;101209.97;;;9.59;91.36
58761;BME280;44529;47.464;19.014;2022-10-04T23:22:36;101222.66;;;9.58;91.17
58761;BME280;44529;47.464;19.014;2022-10-04T23:25:39;101219.44;;;9.56;91.16
58761;BME280;44529;47.464;19.014;2022-10-04T23:28:43;101208.69;;;9.51;91.36
58761;BME280;44529;47.464;19.014;2022-10-04T23:31:45;101224.59;;;9.53;91.36
58761;BME280;44529;47.464;19.014;2022-10-04T23:34:49;101226.78;;;9.50;91.37
58761;BME280;44529;47.464;19.014;2022-10-04T23:37:57;101226.00;;;9.45;91.88
58761;BME280;44529;47.464;19.014;2022-10-04T23:41:01;101226.81;;;9.45;91.54
58761;BME280;44529;47.464;19.014;2022-10-04T23:44:13;101231.69;;;9.43;92.22
58761;BME280;44529;47.464;19.014;2022-10-04T23:47:18;101235.53;;;9.27;92.98
58761;BME280;44529;47.464;19.014;2022-10-04T23:50:35;101238.59;;;9.15;93.67
58761;BME280;44529;47.464;19.014;2022-10-04T23:53:39;101229.91;;;9.23;92.80
58761;BME280;44529;47.464;19.014;2022-10-04T23:56:43;101245.84;;;9.20;93.74
58761;BME280;44529;47.464;19.014;2022-10-04T23:59:46;101245.31;;;9.13;93.69
